createdAt,value
2023-05-20T00:00:31.484Z,26.85
2023-05-20T00:01:31.549Z,26.85
2023-05-20T00:02:31.723Z,26.88
2023-05-20T00:03:31.712Z,26.87
2023-05-20T00:04:31.683Z,26.87
2023-05-20T00:05:31.731Z,26.84
2023-05-20T00:06:31.762Z,26.85
2023-05-20T00:07:31.781Z,26.85
2023-05-20T00:08:31.902Z,26.87
2023-05-20T00:09:31.954Z,26.84
2023-05-20T00:10:32.022Z,26.87
2023-05-20T00:11:31.994Z,26.84
2023-05-20T00:12:32.057Z,26.84
2023-05-20T00:13:32.140Z,26.82
2023-05-20T00:14:32.204Z,26.84
2023-05-20T00:15:32.594Z,26.84
2023-05-20T00:16:32.365Z,26.84
2023-05-20T00:17:32.370Z,26.84
2023-05-20T00:18:32.381Z,26.85
2023-05-20T00:19:32.433Z,26.82
2023-05-20T00:20:32.607Z,26.82
2023-05-20T00:21:32.550Z,26.82
2023-05-20T00:22:32.560Z,26.80
2023-05-20T00:23:32.661Z,26.80
2023-05-20T00:24:32.664Z,26.82
2023-05-20T00:25:33.058Z,26.81
2023-05-20T00:26:32.737Z,26.81
2023-05-20T00:27:32.817Z,26.81
2023-05-20T00:28:32.855Z,26.81
2023-05-20T00:29:32.914Z,26.81
2023-05-20T00:30:32.975Z,26.80
2023-05-20T00:31:33.095Z,26.81
2023-05-20T00:32:33.142Z,26.81
2023-05-20T00:33:33.088Z,26.80
2023-05-20T00:34:33.151Z,26.80
2023-05-20T00:35:33.379Z,26.80
2023-05-20T00:36:33.272Z,26.78
2023-05-20T00:37:33.293Z,26.78
2023-05-20T00:38:33.362Z,26.80
2023-05-20T00:39:33.418Z,26.78
2023-05-20T00:40:33.455Z,26.78
2023-05-20T00:41:33.494Z,26.80
2023-05-20T00:42:33.535Z,26.80
2023-05-20T00:43:33.628Z,26.80
2023-05-20T00:44:33.678Z,26.77
2023-05-20T00:45:33.997Z,26.80
2023-05-20T00:46:33.782Z,26.78
2023-05-20T00:47:33.833Z,26.74
2023-05-20T00:48:33.852Z,26.78
2023-05-20T00:49:33.918Z,26.77
2023-05-20T00:50:33.960Z,26.77
2023-05-20T00:51:34.005Z,26.77
2023-05-20T00:52:34.037Z,26.75
2023-05-20T00:53:34.109Z,26.77
2023-05-20T00:54:34.132Z,26.78
2023-05-20T00:55:34.380Z,26.75
2023-05-20T00:56:34.247Z,26.77
2023-05-20T00:57:34.339Z,26.77
2023-05-20T00:58:34.390Z,26.77
2023-05-20T00:59:34.441Z,26.77
2023-05-20T01:00:34.486Z,26.77
2023-05-20T01:01:34.631Z,26.75
2023-05-20T01:02:34.743Z,26.75
2023-05-20T01:03:34.800Z,26.77
2023-05-20T01:04:34.689Z,26.74
2023-05-20T01:05:34.893Z,26.71
2023-05-20T01:06:34.861Z,26.74
2023-05-20T01:07:34.881Z,26.73
2023-05-20T01:08:34.921Z,26.74
2023-05-20T01:09:34.950Z,26.75
2023-05-20T01:10:35.033Z,26.74
2023-05-20T01:11:35.092Z,26.74
2023-05-20T01:12:35.157Z,26.74
2023-05-20T01:13:35.389Z,26.75
2023-05-20T01:14:35.313Z,26.73
2023-05-20T01:15:35.484Z,26.74
2023-05-20T01:16:35.480Z,26.74
2023-05-20T01:17:35.468Z,26.74
2023-05-20T01:18:35.527Z,26.73
2023-05-20T01:19:35.592Z,26.71
2023-05-20T01:20:35.679Z,26.70
2023-05-20T01:21:35.688Z,26.73
2023-05-20T01:22:35.831Z,26.71
2023-05-20T01:23:35.839Z,26.71
2023-05-20T01:24:35.875Z,26.71
2023-05-20T01:25:36.051Z,26.71
2023-05-20T01:26:36.033Z,26.73
2023-05-20T01:27:36.048Z,26.71
2023-05-20T01:28:36.122Z,26.71
2023-05-20T01:29:36.173Z,26.70
2023-05-20T01:30:36.270Z,26.70
2023-05-20T01:31:36.417Z,26.73
2023-05-20T01:32:36.390Z,26.71
2023-05-20T01:33:36.415Z,26.70
2023-05-20T01:34:36.506Z,26.70
2023-05-20T01:35:36.884Z,26.70
2023-05-20T01:36:36.585Z,26.68
2023-05-20T01:37:36.652Z,26.70
2023-05-20T01:38:36.736Z,26.67
2023-05-20T01:39:36.793Z,26.70
2023-05-20T01:40:36.849Z,26.70
2023-05-20T01:41:36.902Z,26.70
2023-05-20T01:42:36.962Z,26.68
2023-05-20T01:43:37.060Z,26.67
2023-05-20T01:44:37.115Z,26.70
2023-05-20T01:45:37.237Z,26.67
2023-05-20T01:46:37.208Z,26.67
2023-05-20T01:47:37.295Z,26.68
2023-05-20T01:48:37.345Z,26.67
2023-05-20T01:49:37.379Z,26.67
2023-05-20T01:50:37.450Z,26.70
2023-05-20T01:51:37.514Z,26.70
2023-05-20T01:52:37.554Z,26.67
2023-05-20T01:53:37.601Z,26.67
2023-05-20T01:54:37.673Z,26.68
2023-05-20T01:55:37.705Z,26.67
2023-05-20T01:56:37.763Z,26.68
2023-05-20T01:57:37.828Z,26.65
2023-05-20T01:58:37.890Z,26.65
2023-05-20T01:59:37.960Z,26.67
2023-05-20T02:00:37.973Z,26.67
2023-05-20T02:01:38.069Z,26.64
2023-05-20T02:02:38.240Z,26.67
2023-05-20T02:03:38.128Z,26.65
2023-05-20T02:04:38.157Z,26.64
2023-05-20T02:05:38.658Z,26.65
2023-05-20T02:06:38.300Z,26.68
2023-05-20T02:07:38.362Z,26.64
2023-05-20T02:08:38.445Z,26.64
2023-05-20T02:09:38.512Z,26.64
2023-05-20T02:10:38.598Z,26.65
2023-05-20T02:11:38.577Z,26.62
2023-05-20T02:12:38.657Z,26.62
2023-05-20T02:13:38.691Z,26.62
2023-05-20T02:14:38.700Z,26.65
2023-05-20T02:15:38.730Z,26.62
2023-05-20T02:16:38.841Z,26.62
2023-05-20T02:17:38.893Z,26.62
2023-05-20T02:18:38.957Z,26.64
2023-05-20T02:19:38.963Z,26.62
2023-05-20T02:20:39.000Z,26.62
2023-05-20T02:21:39.029Z,26.62
2023-05-20T02:22:39.076Z,26.64
2023-05-20T02:23:39.107Z,26.60
2023-05-20T02:24:39.178Z,26.62
2023-05-20T02:25:39.189Z,26.61
2023-05-20T02:26:39.201Z,26.62
2023-05-20T02:27:39.268Z,26.62
2023-05-20T02:28:39.304Z,26.61
2023-05-20T02:29:39.409Z,26.60
2023-05-20T02:30:39.368Z,26.62
2023-05-20T02:31:39.380Z,26.61
2023-05-20T02:32:39.444Z,26.60
2023-05-20T02:33:39.731Z,26.61
2023-05-20T02:34:39.500Z,26.62
2023-05-20T02:35:39.511Z,26.60
2023-05-20T02:36:39.517Z,26.61
2023-05-20T02:37:39.575Z,26.61
2023-05-20T02:38:39.610Z,26.57
2023-05-20T02:39:39.650Z,26.58
2023-05-20T02:40:39.697Z,26.60
2023-05-20T02:41:39.759Z,26.60
2023-05-20T02:42:39.785Z,26.60
2023-05-20T02:43:39.822Z,26.60
2023-05-20T02:44:39.899Z,26.58
2023-05-20T02:45:40.096Z,26.60
2023-05-20T02:46:39.942Z,26.58
2023-05-20T02:47:39.979Z,26.57
2023-05-20T02:48:40.012Z,26.58
2023-05-20T02:49:40.021Z,26.58
2023-05-20T02:50:40.044Z,26.55
2023-05-20T02:51:40.052Z,26.57
2023-05-20T02:52:40.101Z,26.58
2023-05-20T02:53:40.059Z,26.55
2023-05-20T02:54:40.155Z,26.57
2023-05-20T02:55:40.115Z,26.58
2023-05-20T02:56:40.145Z,26.57
2023-05-20T02:57:40.139Z,26.57
2023-05-20T02:58:40.152Z,26.57
2023-05-20T02:59:40.201Z,26.58
2023-05-20T03:00:41.256Z,26.55
2023-05-20T03:01:40.424Z,26.55
2023-05-20T03:02:40.432Z,26.57
2023-05-20T03:03:40.434Z,26.57
2023-05-20T03:04:40.548Z,26.55
2023-05-20T03:05:40.515Z,26.55
2023-05-20T03:06:40.535Z,26.57
2023-05-20T03:07:40.592Z,26.55
2023-05-20T03:08:40.616Z,26.54
2023-05-20T03:09:40.679Z,26.55
2023-05-20T03:10:40.770Z,26.55
2023-05-20T03:11:40.743Z,26.54
2023-05-20T03:12:40.755Z,26.55
2023-05-20T03:13:40.796Z,26.55
2023-05-20T03:14:40.878Z,26.54
2023-05-20T03:15:40.889Z,26.54
2023-05-20T03:16:40.922Z,26.54
2023-05-20T03:17:41.632Z,26.54
2023-05-20T03:18:41.153Z,26.54
2023-05-20T03:19:41.110Z,26.55
2023-05-20T03:20:41.155Z,26.54
2023-05-20T03:21:41.176Z,26.52
2023-05-20T03:22:41.234Z,26.52
2023-05-20T03:23:41.255Z,26.52
2023-05-20T03:24:41.353Z,26.54
2023-05-20T03:25:41.392Z,26.52
2023-05-20T03:26:41.390Z,26.55
2023-05-20T03:27:41.466Z,26.52
2023-05-20T03:28:41.472Z,26.55
2023-05-20T03:29:41.472Z,26.54
2023-05-20T03:30:41.544Z,26.52
2023-05-20T03:31:41.580Z,26.54
2023-05-20T03:32:41.584Z,26.55
2023-05-20T03:33:41.609Z,26.54
2023-05-20T03:34:41.614Z,26.54
2023-05-20T03:35:41.682Z,26.54
2023-05-20T03:36:41.691Z,26.54
2023-05-20T03:37:41.748Z,26.52
2023-05-20T03:38:41.738Z,26.55
2023-05-20T03:39:41.801Z,26.55
2023-05-20T03:40:41.843Z,26.54
2023-05-20T03:41:41.881Z,26.57
2023-05-20T03:42:41.921Z,26.55
2023-05-20T03:43:42.597Z,26.55
2023-05-20T03:44:41.994Z,26.52
2023-05-20T03:45:42.042Z,26.57
2023-05-20T03:46:42.136Z,26.52
2023-05-20T03:47:42.190Z,26.55
2023-05-20T03:48:42.228Z,26.55
2023-05-20T03:49:42.273Z,26.58
2023-05-20T03:50:42.281Z,26.57
2023-05-20T03:51:42.360Z,26.58
2023-05-20T03:52:42.357Z,26.57
2023-05-20T03:53:42.400Z,26.58
2023-05-20T03:54:42.428Z,26.60
2023-05-20T03:55:42.519Z,26.58
2023-05-20T03:56:42.582Z,26.58
2023-05-20T03:57:42.632Z,26.58
2023-05-20T03:58:42.668Z,26.62
2023-05-20T03:59:42.754Z,26.64
2023-05-20T04:00:42.840Z,26.64
2023-05-20T04:01:42.921Z,26.64
2023-05-20T04:02:43.054Z,26.64
2023-05-20T04:03:43.091Z,26.64
2023-05-20T04:04:43.048Z,26.65
2023-05-20T04:05:43.111Z,26.67
2023-05-20T04:06:43.171Z,26.70
2023-05-20T04:07:43.205Z,26.73
2023-05-20T04:08:43.285Z,26.74
2023-05-20T04:09:43.333Z,26.75
2023-05-20T04:10:43.408Z,26.78
2023-05-20T04:11:43.446Z,26.78
2023-05-20T04:12:43.521Z,26.80
2023-05-20T04:13:43.568Z,26.81
2023-05-20T04:14:43.635Z,26.80
2023-05-20T04:15:43.685Z,26.80
2023-05-20T04:16:43.777Z,26.82
2023-05-20T04:17:43.852Z,26.85
2023-05-20T04:18:43.891Z,26.85
2023-05-20T04:19:43.864Z,26.88
2023-05-20T04:20:43.982Z,26.94
2023-05-20T04:21:43.998Z,27.06
2023-05-20T04:22:44.021Z,27.29
2023-05-20T04:23:44.052Z,27.48
2023-05-20T04:24:44.114Z,27.66
2023-05-20T04:25:44.108Z,27.84
2023-05-20T04:26:44.061Z,27.92
2023-05-20T04:27:44.073Z,27.90
2023-05-20T04:28:44.134Z,27.87
2023-05-20T04:29:44.138Z,27.93
2023-05-20T04:30:44.149Z,27.93
2023-05-20T04:31:44.132Z,27.96
2023-05-20T04:32:44.144Z,27.96
2023-05-20T04:33:44.123Z,27.90
2023-05-20T04:34:44.189Z,27.83
2023-05-20T04:35:44.181Z,27.77
2023-05-20T04:36:44.185Z,27.70
2023-05-20T04:37:44.161Z,27.63
2023-05-20T04:38:44.208Z,27.59
2023-05-20T04:39:44.240Z,27.53
2023-05-20T04:40:44.278Z,27.50
2023-05-20T04:41:44.324Z,27.45
2023-05-20T04:42:44.372Z,27.46
2023-05-20T04:43:44.376Z,27.42
2023-05-20T04:44:44.448Z,27.41
2023-05-20T04:45:44.477Z,27.41
2023-05-20T04:46:44.505Z,27.36
2023-05-20T04:47:44.607Z,27.36
2023-05-20T04:48:44.577Z,27.33
2023-05-20T04:49:44.639Z,27.31
2023-05-20T04:50:44.627Z,27.31
2023-05-20T04:51:44.667Z,27.32
2023-05-20T04:52:44.745Z,27.35
2023-05-20T04:53:46.176Z,27.36
2023-05-20T04:54:44.757Z,27.41
2023-05-20T04:55:44.834Z,27.43
2023-05-20T04:56:44.831Z,27.50
2023-05-20T04:57:44.849Z,27.57
2023-05-20T04:58:44.864Z,27.56
2023-05-20T04:59:44.875Z,27.62
2023-05-20T05:00:44.895Z,27.64
2023-05-20T05:01:44.969Z,27.63
2023-05-20T05:02:44.928Z,27.62
2023-05-20T05:03:44.897Z,27.63
2023-05-20T05:04:45.063Z,27.60
2023-05-20T05:05:44.891Z,27.60
2023-05-20T05:06:44.949Z,27.59
2023-05-20T05:07:44.976Z,27.56
2023-05-20T05:08:44.967Z,27.56
2023-05-20T05:09:44.949Z,27.57
2023-05-20T05:10:44.978Z,27.54
2023-05-20T05:11:44.988Z,27.54
2023-05-20T05:12:45.052Z,27.50
2023-05-20T05:13:44.992Z,27.50
2023-05-20T05:14:45.068Z,27.50
2023-05-20T05:15:45.063Z,27.50
2023-05-20T05:16:45.034Z,27.50
2023-05-20T05:17:45.118Z,27.49
2023-05-20T05:18:45.115Z,27.50
2023-05-20T05:19:45.146Z,27.50
2023-05-20T05:20:45.099Z,27.52
2023-05-20T05:21:45.156Z,27.53
2023-05-20T05:22:45.154Z,27.56
2023-05-20T05:23:45.175Z,27.56
2023-05-20T05:24:45.178Z,27.57
2023-05-20T05:25:45.176Z,27.60
2023-05-20T05:26:45.189Z,27.63
2023-05-20T05:27:45.221Z,27.59
2023-05-20T05:28:45.209Z,27.63
2023-05-20T05:29:45.207Z,27.63
2023-05-20T05:30:45.228Z,27.67
2023-05-20T05:31:45.230Z,27.69
2023-05-20T05:32:45.487Z,27.69
2023-05-20T05:33:45.284Z,27.67
2023-05-20T05:34:45.272Z,27.69
2023-05-20T05:35:45.256Z,27.67
2023-05-20T05:36:45.251Z,27.67
2023-05-20T05:37:45.263Z,27.69
2023-05-20T05:38:45.290Z,27.70
2023-05-20T05:39:45.287Z,27.72
2023-05-20T05:40:45.286Z,27.73
2023-05-20T05:41:45.295Z,27.73
2023-05-20T05:42:45.261Z,27.73
2023-05-20T05:43:45.260Z,27.76
2023-05-20T05:44:45.307Z,27.76
2023-05-20T05:45:45.267Z,27.80
2023-05-20T05:46:45.291Z,27.79
2023-05-20T05:47:45.348Z,27.79
2023-05-20T05:48:45.289Z,27.82
2023-05-20T05:49:45.304Z,27.79
2023-05-20T05:50:45.354Z,27.80
2023-05-20T05:51:45.315Z,27.77
2023-05-20T05:52:45.383Z,27.82
2023-05-20T05:53:45.381Z,27.79
2023-05-20T05:54:45.385Z,27.82
2023-05-20T05:55:45.381Z,27.80
2023-05-20T05:56:45.451Z,27.82
2023-05-20T05:57:45.451Z,27.82
2023-05-20T05:58:45.464Z,27.82
2023-05-20T05:59:45.524Z,27.84
2023-05-20T06:00:45.607Z,27.80
2023-05-20T06:01:45.595Z,27.83
2023-05-20T06:02:45.760Z,27.83
2023-05-20T06:03:45.741Z,27.83
2023-05-20T06:04:45.649Z,27.83
2023-05-20T06:05:45.713Z,27.83
2023-05-20T06:06:45.773Z,27.83
2023-05-20T06:07:45.803Z,27.82
2023-05-20T06:08:45.879Z,27.84
2023-05-20T06:09:45.952Z,27.83
2023-05-20T06:10:45.954Z,27.84
2023-05-20T06:11:46.020Z,27.87
2023-05-20T06:12:46.069Z,27.87
2023-05-20T06:13:46.144Z,27.89
2023-05-20T06:14:46.184Z,27.90
2023-05-20T06:15:46.253Z,27.89
2023-05-20T06:16:46.323Z,27.90
2023-05-20T06:17:46.349Z,27.93
2023-05-20T06:18:46.442Z,27.93
2023-05-20T06:19:46.473Z,27.96
2023-05-20T06:20:46.534Z,27.93
2023-05-20T06:21:46.578Z,27.94
2023-05-20T06:22:46.719Z,27.96
2023-05-20T06:23:46.715Z,27.94
2023-05-20T06:24:46.810Z,27.94
2023-05-20T06:25:46.842Z,27.94
2023-05-20T06:26:46.898Z,27.94
2023-05-20T06:27:46.946Z,27.96
2023-05-20T06:28:47.044Z,27.96
2023-05-20T06:29:47.086Z,27.96
2023-05-20T06:30:47.187Z,27.96
2023-05-20T06:31:47.162Z,27.96
2023-05-20T06:32:47.269Z,27.97
2023-05-20T06:33:47.299Z,27.99
2023-05-20T06:34:47.334Z,27.99
2023-05-20T06:35:47.401Z,27.97
2023-05-20T06:36:47.471Z,27.96
2023-05-20T06:37:47.560Z,27.99
2023-05-20T06:38:47.624Z,27.99
2023-05-20T06:39:47.656Z,28.00
2023-05-20T06:40:47.751Z,28.03
2023-05-20T06:41:47.808Z,28.01
2023-05-20T06:42:47.861Z,28.01
2023-05-20T06:43:47.919Z,28.04
2023-05-20T06:44:47.952Z,28.05
2023-05-20T06:45:48.040Z,28.07
2023-05-20T06:46:48.164Z,28.07
2023-05-20T06:47:48.226Z,28.10
2023-05-20T06:48:48.164Z,28.11
2023-05-20T06:49:48.182Z,28.13
2023-05-20T06:50:48.293Z,28.18
2023-05-20T06:51:48.284Z,28.21
2023-05-20T06:52:48.341Z,28.21
2023-05-20T06:53:48.396Z,28.25
2023-05-20T06:54:48.416Z,28.30
2023-05-20T06:55:48.461Z,28.27
2023-05-20T06:56:48.485Z,28.30
2023-05-20T06:57:48.507Z,28.35
2023-05-20T06:58:48.527Z,28.35
2023-05-20T06:59:48.590Z,28.37
2023-05-20T07:00:48.664Z,28.38
2023-05-20T07:01:48.701Z,28.38
2023-05-20T07:02:48.718Z,28.44
2023-05-20T07:03:48.804Z,28.42
2023-05-20T07:04:48.736Z,28.44
2023-05-20T07:05:48.725Z,28.45
2023-05-20T07:06:48.806Z,28.47
2023-05-20T07:07:48.800Z,28.47
2023-05-20T07:08:48.765Z,28.48
2023-05-20T07:09:48.808Z,28.51
2023-05-20T07:10:48.827Z,28.50
2023-05-20T07:11:48.841Z,28.52
2023-05-20T07:12:48.862Z,28.52
2023-05-20T07:13:48.837Z,28.52
2023-05-20T07:14:48.847Z,28.52
2023-05-20T07:15:48.919Z,28.52
2023-05-20T07:16:48.906Z,28.52
2023-05-20T07:17:48.951Z,28.48
2023-05-20T07:18:48.975Z,28.52
2023-05-20T07:19:48.930Z,28.54
2023-05-20T07:20:49.004Z,28.52
2023-05-20T07:21:48.976Z,28.55
2023-05-20T07:22:49.013Z,28.56
2023-05-20T07:23:48.956Z,28.56
2023-05-20T07:24:49.023Z,28.56
2023-05-20T07:25:49.021Z,28.59
2023-05-20T07:26:49.040Z,28.61
2023-05-20T07:27:49.049Z,28.61
2023-05-20T07:28:49.049Z,28.64
2023-05-20T07:29:49.048Z,28.62
2023-05-20T07:30:49.005Z,28.64
2023-05-20T07:31:49.093Z,28.65
2023-05-20T07:32:49.059Z,28.64
2023-05-20T07:33:49.037Z,28.65
2023-05-20T07:34:49.036Z,28.69
2023-05-20T07:35:49.059Z,28.68
2023-05-20T07:36:49.052Z,28.68
2023-05-20T07:37:49.006Z,28.72
2023-05-20T07:38:56.993Z,28.71
2023-05-20T07:39:50.046Z,28.71
2023-05-20T07:40:49.036Z,28.71
2023-05-20T07:41:49.037Z,28.75
2023-05-20T07:42:49.228Z,28.72
2023-05-20T07:43:49.004Z,28.71
2023-05-20T07:44:48.999Z,28.71
2023-05-20T07:45:49.029Z,28.74
2023-05-20T07:46:48.962Z,28.72
2023-05-20T07:47:49.012Z,28.75
2023-05-20T07:48:48.987Z,28.78
2023-05-20T07:49:49.004Z,28.74
2023-05-20T07:50:48.959Z,28.76
2023-05-20T07:51:48.922Z,28.76
2023-05-20T07:53:49.972Z,28.76
2023-05-20T07:54:48.947Z,28.76
2023-05-20T07:55:48.961Z,28.75
2023-05-20T07:56:48.969Z,28.76
2023-05-20T07:57:48.989Z,28.76
2023-05-20T07:58:48.943Z,28.75
2023-05-20T07:59:48.954Z,28.78
2023-05-20T08:00:49.015Z,28.78
2023-05-20T08:01:48.993Z,28.78
2023-05-20T08:02:48.981Z,28.79
2023-05-20T08:03:49.032Z,28.81
2023-05-20T08:04:49.040Z,28.79
2023-05-20T08:05:49.078Z,28.79
2023-05-20T08:06:49.049Z,28.81
2023-05-20T08:07:49.101Z,28.82
2023-05-20T08:08:49.186Z,28.82
2023-05-20T08:09:49.232Z,28.82
2023-05-20T08:10:49.244Z,28.86
2023-05-20T08:11:49.296Z,28.85
2023-05-20T08:12:49.370Z,28.91
2023-05-20T08:13:49.456Z,28.89
2023-05-20T08:14:49.522Z,28.89
2023-05-20T08:15:49.587Z,28.91
2023-05-20T08:16:50.581Z,28.92
2023-05-20T08:17:49.661Z,28.93
2023-05-20T08:18:49.768Z,28.96
2023-05-20T08:19:49.602Z,28.99
2023-05-20T08:20:49.625Z,28.99
2023-05-20T08:21:49.600Z,29.01
2023-05-20T08:22:49.590Z,29.02
2023-05-20T08:23:50.354Z,29.05
2023-05-20T08:24:49.567Z,29.03
2023-05-20T08:25:49.553Z,29.06
2023-05-20T08:26:49.595Z,29.07
2023-05-20T08:27:49.562Z,29.07
2023-05-20T08:28:49.550Z,29.09
2023-05-20T08:29:49.565Z,29.10
2023-05-20T08:30:49.530Z,29.10
2023-05-20T08:31:49.523Z,29.12
2023-05-20T08:32:49.638Z,29.13
2023-05-20T08:33:49.492Z,29.12
2023-05-20T08:34:49.494Z,29.15
2023-05-20T08:35:49.467Z,29.16
2023-05-20T08:36:49.510Z,29.20
2023-05-20T08:37:49.462Z,29.22
2023-05-20T08:38:49.449Z,29.22
2023-05-20T08:39:50.246Z,29.25
2023-05-20T08:40:49.466Z,29.25
2023-05-20T08:41:49.439Z,29.25
2023-05-20T08:42:49.545Z,29.27
2023-05-20T08:43:49.449Z,29.32
2023-05-20T08:44:49.418Z,29.30
2023-05-20T08:45:49.393Z,29.30
2023-05-20T08:46:49.571Z,29.36
2023-05-20T08:47:49.483Z,29.33
2023-05-20T08:48:49.397Z,29.34
2023-05-20T08:49:49.432Z,29.32
2023-05-20T08:50:49.366Z,29.34
2023-05-20T08:51:49.367Z,29.36
2023-05-20T08:52:49.337Z,29.36
2023-05-20T08:53:49.420Z,29.36
2023-05-20T08:54:49.424Z,29.37
2023-05-20T08:55:49.496Z,29.38
2023-05-20T08:56:49.551Z,29.37
2023-05-20T08:57:49.551Z,29.40
2023-05-20T08:58:49.555Z,29.42
2023-05-20T08:59:49.637Z,29.42
2023-05-20T09:00:49.634Z,29.38
2023-05-20T09:01:49.763Z,29.40
2023-05-20T09:02:49.802Z,29.42
2023-05-20T09:03:49.750Z,29.40
2023-05-20T09:04:49.864Z,29.42
2023-05-20T09:05:49.811Z,29.44
2023-05-20T09:06:49.856Z,29.43
2023-05-20T09:07:49.869Z,29.47
2023-05-20T09:08:49.936Z,29.44
2023-05-20T09:09:49.961Z,29.43
2023-05-20T09:10:49.994Z,29.46
2023-05-20T09:11:50.058Z,29.44
2023-05-20T09:12:50.081Z,29.47
2023-05-20T09:13:50.071Z,29.49
2023-05-20T09:14:50.140Z,29.47
2023-05-20T09:15:50.218Z,29.50
2023-05-20T09:16:50.215Z,29.49
2023-05-20T09:17:50.341Z,29.49
2023-05-20T09:18:50.298Z,29.44
2023-05-20T09:19:50.331Z,29.49
2023-05-20T09:20:50.323Z,29.49
2023-05-20T09:21:50.393Z,29.47
2023-05-20T09:22:50.358Z,29.47
2023-05-20T09:23:50.456Z,29.50
2023-05-20T09:24:50.465Z,29.49
2023-05-20T09:25:50.478Z,29.52
2023-05-20T09:26:50.504Z,29.47
2023-05-20T09:27:50.584Z,29.50
2023-05-20T09:28:50.597Z,29.50
2023-05-20T09:29:50.607Z,29.49
2023-05-20T09:30:50.660Z,29.52
2023-05-20T09:31:50.682Z,29.52
2023-05-20T09:32:50.748Z,29.52
2023-05-20T09:33:50.724Z,29.53
2023-05-20T09:34:51.761Z,29.53
2023-05-20T09:35:50.796Z,29.50
2023-05-20T09:36:50.825Z,29.50
2023-05-20T09:37:50.907Z,29.52
2023-05-20T09:38:50.867Z,29.50
2023-05-20T09:39:50.879Z,29.52
2023-05-20T09:40:50.922Z,29.54
2023-05-20T09:41:50.936Z,29.54
2023-05-20T09:42:50.985Z,29.52
2023-05-20T09:43:50.991Z,29.53
2023-05-20T09:44:50.999Z,29.53
2023-05-20T09:45:51.039Z,29.52
2023-05-20T09:46:51.073Z,29.56
2023-05-20T09:47:51.108Z,29.52
2023-05-20T09:48:51.125Z,29.54
2023-05-20T09:49:51.140Z,29.52
2023-05-20T09:50:51.139Z,29.53
2023-05-20T09:51:51.230Z,29.54
2023-05-20T09:52:51.214Z,29.56
2023-05-20T09:53:51.235Z,29.54
2023-05-20T09:54:51.278Z,29.56
2023-05-20T09:55:51.284Z,29.57
2023-05-20T09:56:51.400Z,29.61
2023-05-20T09:57:51.324Z,29.60
2023-05-20T09:58:51.375Z,29.60
2023-05-20T09:59:51.426Z,29.60
2023-05-20T10:00:51.432Z,29.61
2023-05-20T10:01:51.599Z,29.63
2023-05-20T10:02:51.522Z,29.63
2023-05-20T10:03:51.611Z,29.63
2023-05-20T10:04:51.506Z,29.64
2023-05-20T10:05:51.554Z,29.64
2023-05-20T10:06:51.656Z,29.64
2023-05-20T10:07:51.571Z,29.64
2023-05-20T10:08:51.571Z,29.67
2023-05-20T10:09:51.593Z,29.64
2023-05-20T10:10:51.595Z,29.64
2023-05-20T10:11:51.638Z,29.68
2023-05-20T10:12:51.667Z,29.68
2023-05-20T10:13:51.714Z,29.67
2023-05-20T10:14:51.725Z,29.68
2023-05-20T10:15:51.780Z,29.68
2023-05-20T10:16:51.735Z,29.67
2023-05-20T10:17:51.776Z,29.68
2023-05-20T10:18:51.810Z,29.67
2023-05-20T10:19:51.819Z,29.66
2023-05-20T10:20:51.827Z,29.66
2023-05-20T10:21:51.834Z,29.68
2023-05-20T10:22:51.839Z,29.66
2023-05-20T10:23:51.848Z,29.66
2023-05-20T10:24:51.894Z,29.64
2023-05-20T10:25:51.905Z,29.66
2023-05-20T10:26:51.903Z,29.67
2023-05-20T10:27:51.925Z,29.66
2023-05-20T10:28:51.934Z,29.66
2023-05-20T10:29:52.008Z,29.67
2023-05-20T10:30:51.994Z,29.66
2023-05-20T10:31:52.066Z,29.67
2023-05-20T10:32:52.116Z,29.68
2023-05-20T10:33:52.057Z,29.68
2023-05-20T10:34:52.061Z,29.70
2023-05-20T10:35:52.104Z,29.70
2023-05-20T10:36:52.071Z,29.70
2023-05-20T10:37:52.084Z,29.70
2023-05-20T10:38:52.193Z,29.74
2023-05-20T10:39:52.108Z,29.73
2023-05-20T10:40:52.122Z,29.74
2023-05-20T10:41:52.116Z,29.73
2023-05-20T10:42:52.153Z,29.74
2023-05-20T10:43:52.119Z,29.75
2023-05-20T10:44:52.184Z,29.75
2023-05-20T10:45:52.170Z,29.73
2023-05-20T10:47:52.229Z,29.77
2023-05-20T10:48:52.287Z,29.78
2023-05-20T10:49:52.260Z,29.77
2023-05-20T10:50:52.279Z,29.77
2023-05-20T10:51:52.225Z,29.78
2023-05-20T10:52:52.242Z,29.75
2023-05-20T10:53:52.230Z,29.77
2023-05-20T10:54:52.253Z,29.77
2023-05-20T10:55:52.352Z,29.77
2023-05-20T10:56:52.250Z,29.78
2023-05-20T10:57:52.263Z,29.77
2023-05-20T10:58:52.283Z,29.77
2023-05-20T10:59:52.267Z,29.77
2023-05-20T11:00:52.306Z,29.80
2023-05-20T11:01:52.273Z,29.78
2023-05-20T11:02:52.430Z,29.75
2023-05-20T11:03:52.408Z,29.78
2023-05-20T11:04:52.366Z,29.77
2023-05-20T11:05:52.382Z,29.75
2023-05-20T11:06:52.384Z,29.74
2023-05-20T11:07:52.386Z,29.75
2023-05-20T11:08:52.331Z,29.73
2023-05-20T11:09:52.368Z,29.75
2023-05-20T11:10:52.405Z,29.75
2023-05-20T11:11:52.409Z,29.74
2023-05-20T11:12:52.392Z,29.71
2023-05-20T11:13:52.398Z,29.73
2023-05-20T11:14:52.389Z,29.74
2023-05-20T11:15:52.466Z,29.74
2023-05-20T11:16:52.487Z,29.74
2023-05-20T11:17:52.476Z,29.74
2023-05-20T11:18:52.500Z,29.75
2023-05-20T11:19:52.485Z,29.71
2023-05-20T11:20:52.484Z,29.74
2023-05-20T11:21:52.501Z,29.74
2023-05-20T11:22:52.661Z,29.71
2023-05-20T11:23:52.507Z,29.74
2023-05-20T11:24:52.461Z,29.71
2023-05-20T11:25:52.528Z,29.73
2023-05-20T11:26:52.518Z,29.71
2023-05-20T11:27:52.494Z,29.74
2023-05-20T11:28:52.615Z,29.71
2023-05-20T11:29:52.536Z,29.74
2023-05-20T11:30:52.574Z,29.71
2023-05-20T11:31:52.585Z,29.70
2023-05-20T11:32:52.768Z,29.71
2023-05-20T11:33:52.559Z,29.73
2023-05-20T11:34:52.569Z,29.71
2023-05-20T11:35:52.587Z,29.70
2023-05-20T11:36:52.663Z,29.73
2023-05-20T11:37:52.637Z,29.71
2023-05-20T11:38:52.620Z,29.71
2023-05-20T11:39:52.854Z,29.71
2023-05-20T11:40:52.729Z,29.74
2023-05-20T11:41:52.626Z,29.73
2023-05-20T11:42:52.734Z,29.71
2023-05-20T11:43:52.636Z,29.73
2023-05-20T11:44:52.703Z,29.73
2023-05-20T11:45:52.752Z,29.73
2023-05-20T11:46:52.690Z,29.74
2023-05-20T11:47:52.735Z,29.74
2023-05-20T11:48:52.732Z,29.74
2023-05-20T11:49:52.717Z,29.71
2023-05-20T11:50:52.726Z,29.74
2023-05-20T11:51:52.774Z,29.73
2023-05-20T11:52:52.730Z,29.73
2023-05-20T11:53:52.761Z,29.73
2023-05-20T11:54:52.764Z,29.71
2023-05-20T11:55:52.780Z,29.73
2023-05-20T11:56:52.902Z,29.71
2023-05-20T11:57:52.841Z,29.74
2023-05-20T11:58:52.808Z,29.74
2023-05-20T11:59:52.804Z,29.71
2023-05-20T12:00:57.145Z,29.71
2023-05-20T12:01:53.834Z,29.71
2023-05-20T12:02:52.834Z,29.73
2023-05-20T12:03:52.995Z,29.73
2023-05-20T12:04:52.833Z,29.71
2023-05-20T12:05:52.787Z,29.71
2023-05-20T12:06:52.803Z,29.73
2023-05-20T12:07:53.558Z,29.73
2023-05-20T12:08:52.782Z,29.73
2023-05-20T12:09:52.776Z,29.71
2023-05-20T12:10:52.765Z,29.71
2023-05-20T12:11:52.726Z,29.73
2023-05-20T12:12:52.729Z,29.73
2023-05-20T12:13:52.735Z,29.73
2023-05-20T12:14:52.758Z,29.73
2023-05-20T12:15:52.912Z,29.71
2023-05-20T12:16:52.754Z,29.71
2023-05-20T12:17:52.819Z,29.70
2023-05-20T12:18:52.904Z,29.71
2023-05-20T12:19:52.776Z,29.67
2023-05-20T12:20:52.802Z,29.71
2023-05-20T12:21:52.802Z,29.68
2023-05-20T12:22:52.801Z,29.68
2023-05-20T12:23:52.806Z,29.66
2023-05-20T12:24:53.646Z,29.66
2023-05-20T12:25:53.073Z,29.66
2023-05-20T12:26:53.071Z,29.68
2023-05-20T12:27:53.085Z,29.68
2023-05-20T12:28:53.080Z,29.66
2023-05-20T12:29:53.091Z,29.66
2023-05-20T12:30:53.188Z,29.66
2023-05-20T12:31:53.127Z,29.66
2023-05-20T12:32:53.194Z,29.63
2023-05-20T12:33:53.120Z,29.64
2023-05-20T12:34:53.192Z,29.63
2023-05-20T12:35:53.212Z,29.66
2023-05-20T12:36:53.201Z,29.64
2023-05-20T12:37:53.201Z,29.64
2023-05-20T12:38:53.259Z,29.63
2023-05-20T12:39:53.265Z,29.61
2023-05-20T12:40:53.273Z,29.60
2023-05-20T12:41:53.274Z,29.61
2023-05-20T12:42:53.340Z,29.63
2023-05-20T12:43:53.289Z,29.63
2023-05-20T12:44:53.359Z,29.61
2023-05-20T12:45:53.394Z,29.60
2023-05-20T12:46:53.423Z,29.58
2023-05-20T12:47:53.429Z,29.57
2023-05-20T12:48:53.415Z,29.58
2023-05-20T12:49:53.453Z,29.57
2023-05-20T12:50:53.488Z,29.57
2023-05-20T12:51:53.485Z,29.58
2023-05-20T12:52:53.490Z,29.57
2023-05-20T12:53:53.524Z,29.57
2023-05-20T12:54:53.535Z,29.56